Terminal Aerodrome Forecast
Issued by NWS

Home | Current Version | Previous Version | Text Only | Print | Product List | Glossary On
Versions: 1 2 3 4 5 6 7 8 9 10 11 12 13 14 15 16
000
FTUS41 KCLE 212340
TAFFDY
TAF
KFDY 212340Z 2200/2224 21008KT P6SM SCT060 BKN200
     FM220700 22009KT P6SM BKN090 WS020/25040KT
     FM221200 23008KT P6SM -SHRA BKN080 WS020/25040KT
     FM221400 24015G22KT P6SM VCSH BKN080
     FM221800 26015G25KT P6SM -SHRA VCTS OVC040CB
     FM222100 28012KT P6SM BKN045=

USA.gov is the U.S. government's official web portal to all federal, state and local government web resources and services.